METAR UND TAF INFORMATION

METAR FOR ZSPD
ADDS - METARS form results

(0517 UTC 26 June 2022)
Data provider http://aviationweather.gov/metar/data/
 
METAR text: ZSPD 260500Z 19008MPS CAVOK 33/25 Q1007 NOSIG
Conditions at: ZSPD (SHANGHAI/PUDONG , CN) observed 0500 UTC 26 June 2022
Temperature: 33.0°C (91°F)
Dewpoint: 25.0°C (77°F) [RH = 63%]
Pressure (altimeter): 29.73 inches Hg (1007.0 mb)
Winds: from the S (190 degrees) at 18 MPH (16 knots; 8.2 m/s)
Visibility: 6 or more miles (10+ km)
Ceiling: ceiling and visibility are OK
Clouds: unknown
Weather: no significant weather observed at this time

METAR text: ZSPD 260430Z 19008MPS CAVOK 33/26 Q1007 NOSIG
Conditions at: ZSPD (SHANGHAI/PUDONG , CN) observed 0430 UTC 26 June 2022
Temperature: 33.0°C (91°F)
Dewpoint: 26.0°C (79°F) [RH = 67%]
Pressure (altimeter): 29.73 inches Hg (1007.0 mb)
Winds: from the S (190 degrees) at 18 MPH (16 knots; 8.2 m/s)
Visibility: 6 or more miles (10+ km)
Ceiling: ceiling and visibility are OK
Clouds: unknown
Weather: no significant weather observed at this time

Forecast for: ZSPD (SHANGHAI/PUDONG , CN)
Text: TAF ZSPD 260306Z 2606/2706 17007MPS CAVOK TX35/2606Z TN26/2621Z
Forecast period: 0600 UTC 26 June 2022 to 0600 UTC 27 June 2022
Forecast type: FROM: standard forecast or significant change
Winds: from the S (170 degrees) at 16 MPH (14 knots; 7.2 m/s)
Visibility: 6 or more miles (10+ km)
Ceiling: unknown
Clouds: missing
Weather: no significant weather forecast for this period

 FLUGHAFENKARTE

 RUNWAY INFORMATION
Runway 16 Runway length 12467 ft Runway width 197 ft
Runway elevation 13 ft Runway displaced threshold 0 ft Runway heading 162
Runway 34 Runway length 12467 ft Runway width 197 ft
Runway elevation 13 ft Runway displaced threshold 0 ft Runway heading 342
Runway 17 Runway length 13123 ft Runway width 197 ft
Runway elevation 10 ft Runway displaced threshold 0 ft Runway heading 162
Runway 35 Runway length 13123 ft Runway width 197 ft
Runway elevation 10 ft Runway displaced threshold 0 ft Runway heading 342

 AIRPORT FREQUENCIES
Type APP Name SHANGHAI A Frequency 119.75 MHZ
Type APP Name SHANGHAI A Frequency 120.3 MHZ
Type APP Name SHAINGHAI Frequency 121.3 MHZ
Type APP Name SHANGHAI A Frequency 123.8 MHZ
Type ATIS Name ATIS Frequency 127.85 MHZ
Type CLD Name DEL Frequency 121.95 MHZ
Type GND Name GND EAST Frequency 121.8 MHZ
Type GND Name GND WEST Frequency 121.65 MHZ
Type TWR Name TWR EAST Frequency 118.4 MHZ
Type TWR Name TWR WEST Frequency 118.8 MHZ

 AIRPORT NEAR NAVIGATION AIDS
Type VOR-DME Name Hengsha Frequency 114400 KHZ
Type VOR-DME Name Nanhui Frequency 114600 KHZ
Type VOR-DME Name Liuzao Frequency 109400 KHZ
Type VOR-DME Name Pudong Frequency 116900 KHZ
Type VOR-DME Name Shuyuan Frequency 113600 KHZ